sensor_id;sensor_type;location;lat;lon;timestamp;pressure;altitude;pressure_sealevel;temperature;humidity
49759;BME280;70329;45.524;10.194;2024-01-10T00:01:05;101235.75;;;4.49;86.20
49759;BME280;70329;45.524;10.194;2024-01-10T00:03:32;101230.56;;;4.41;83.99
49759;BME280;70329;45.524;10.194;2024-01-10T00:05:59;101233.06;;;4.29;83.15
49759;BME280;70329;45.524;10.194;2024-01-10T00:08:27;101230.13;;;4.31;85.16
49759;BME280;70329;45.524;10.194;2024-01-10T00:10:53;101231.78;;;4.25;84.75
49759;BME280;70329;45.524;10.194;2024-01-10T00:13:20;101232.00;;;4.24;84.89
49759;BME280;70329;45.524;10.194;2024-01-10T00:15:47;101235.97;;;4.21;86.20
49759;BME280;70329;45.524;10.194;2024-01-10T00:18:15;101223.44;;;4.20;85.09
49759;BME280;70329;45.524;10.194;2024-01-10T00:20:42;101227.44;;;4.24;84.33
49759;BME280;70329;45.524;10.194;2024-01-10T00:23:10;101231.59;;;4.20;83.96
49759;BME280;70329;45.524;10.194;2024-01-10T00:25:39;101226.59;;;4.24;85.95
49759;BME280;70329;45.524;10.194;2024-01-10T00:28:07;101230.34;;;4.23;82.30
49759;BME280;70329;45.524;10.194;2024-01-10T00:30:34;101230.34;;;4.29;83.03
49759;BME280;70329;45.524;10.194;2024-01-10T00:33:00;101231.56;;;4.33;83.74
49759;BME280;70329;45.524;10.194;2024-01-10T00:35:26;101233.03;;;4.36;82.95
49759;BME280;70329;45.524;10.194;2024-01-10T00:37:52;101228.25;;;4.38;83.51
49759;BME280;70329;45.524;10.194;2024-01-10T00:40:19;101229.28;;;4.43;83.60
49759;BME280;70329;45.524;10.194;2024-01-10T00:42:47;101222.81;;;4.44;84.17
49759;BME280;70329;45.524;10.194;2024-01-10T00:45:14;101228.25;;;4.51;86.61
49759;BME280;70329;45.524;10.194;2024-01-10T00:47:40;101228.00;;;4.52;87.96
49759;BME280;70329;45.524;10.194;2024-01-10T00:50:07;101224.47;;;4.58;88.81
49759;BME280;70329;45.524;10.194;2024-01-10T00:52:34;101231.75;;;4.64;89.08
49759;BME280;70329;45.524;10.194;2024-01-10T00:55:01;101237.03;;;4.46;85.74
49759;BME280;70329;45.524;10.194;2024-01-10T00:57:28;101238.88;;;4.46;87.22
49759;BME280;70329;45.524;10.194;2024-01-10T00:59:56;101239.50;;;4.54;88.88
49759;BME280;70329;45.524;10.194;2024-01-10T01:02:22;101236.34;;;4.64;90.90
49759;BME280;70329;45.524;10.194;2024-01-10T01:04:49;101238.22;;;4.70;91.90
49759;BME280;70329;45.524;10.194;2024-01-10T01:07:15;101239.50;;;4.74;90.91
49759;BME280;70329;45.524;10.194;2024-01-10T01:09:42;101240.75;;;4.72;87.91
49759;BME280;70329;45.524;10.194;2024-01-10T01:12:09;101243.25;;;4.53;86.44
49759;BME280;70329;45.524;10.194;2024-01-10T01:14:35;101250.34;;;4.41;86.67
49759;BME280;70329;45.524;10.194;2024-01-10T01:17:03;101246.59;;;4.42;88.35
49759;BME280;70329;45.524;10.194;2024-01-10T01:19:30;101252.03;;;4.49;91.01
49759;BME280;70329;45.524;10.194;2024-01-10T01:21:57;101242.03;;;4.49;91.64
49759;BME280;70329;45.524;10.194;2024-01-10T01:24:25;101238.88;;;4.59;92.81
49759;BME280;70329;45.524;10.194;2024-01-10T01:26:53;101245.13;;;4.66;92.94
49759;BME280;70329;45.524;10.194;2024-01-10T01:29:20;101247.22;;;4.51;88.00
49759;BME280;70329;45.524;10.194;2024-01-10T01:31:47;101248.06;;;4.51;89.56
49759;BME280;70329;45.524;10.194;2024-01-10T01:34:15;101248.91;;;4.52;89.53
49759;BME280;70329;45.524;10.194;2024-01-10T01:36:41;101254.75;;;4.49;89.35
49759;BME280;70329;45.524;10.194;2024-01-10T01:39:09;101252.03;;;4.42;89.09
49759;BME280;70329;45.524;10.194;2024-01-10T01:41:38;101258.09;;;4.57;90.29
49759;BME280;70329;45.524;10.194;2024-01-10T01:44:05;101252.22;;;4.67;90.43
49759;BME280;70329;45.524;10.194;2024-01-10T01:46:31;101255.78;;;4.67;89.10
49759;BME280;70329;45.524;10.194;2024-01-10T01:49:00;101262.66;;;4.70;89.93
49759;BME280;70329;45.524;10.194;2024-01-10T01:51:31;101256.56;;;4.75;89.51
49759;BME280;70329;45.524;10.194;2024-01-10T01:53:59;101265.38;;;4.77;88.95
49759;BME280;70329;45.524;10.194;2024-01-10T01:56:26;101268.69;;;4.79;88.35
49759;BME280;70329;45.524;10.194;2024-01-10T01:58:54;101270.16;;;4.81;88.03
49759;BME280;70329;45.524;10.194;2024-01-10T02:01:21;101270.56;;;4.85;89.20
49759;BME280;70329;45.524;10.194;2024-01-10T02:03:48;101268.88;;;4.84;89.30
49759;BME280;70329;45.524;10.194;2024-01-10T02:06:15;101270.34;;;4.86;90.75
49759;BME280;70329;45.524;10.194;2024-01-10T02:08:44;101267.25;;;4.83;88.68
49759;BME280;70329;45.524;10.194;2024-01-10T02:11:12;101264.09;;;4.86;88.68
49759;BME280;70329;45.524;10.194;2024-01-10T02:13:39;101265.97;;;4.85;87.64
49759;BME280;70329;45.524;10.194;2024-01-10T02:16:07;101264.09;;;4.86;85.72
49759;BME280;70329;45.524;10.194;2024-01-10T02:18:34;101274.75;;;4.81;84.66
49759;BME280;70329;45.524;10.194;2024-01-10T02:21:03;101274.97;;;4.79;85.25
49759;BME280;70329;45.524;10.194;2024-01-10T02:23:30;101272.84;;;4.75;84.76
49759;BME280;70329;45.524;10.194;2024-01-10T02:25:59;101274.31;;;4.84;86.44
49759;BME280;70329;45.524;10.194;2024-01-10T02:28:26;101269.72;;;4.91;85.91
49759;BME280;70329;45.524;10.194;2024-01-10T02:30:54;101268.47;;;4.87;85.59
49759;BME280;70329;45.524;10.194;2024-01-10T02:33:21;101266.22;;;4.77;86.02
49759;BME280;70329;45.524;10.194;2024-01-10T02:35:48;101268.91;;;4.70;87.12
49759;BME280;70329;45.524;10.194;2024-01-10T02:38:16;101274.34;;;4.77;89.08
49759;BME280;70329;45.524;10.194;2024-01-10T02:40:47;101259.28;;;4.81;90.62
49759;BME280;70329;45.524;10.194;2024-01-10T02:43:16;101257.41;;;4.82;90.03
49759;BME280;70329;45.524;10.194;2024-01-10T02:45:43;101257.19;;;4.83;90.83
49759;BME280;70329;45.524;10.194;2024-01-10T02:48:09;101255.13;;;4.79;91.81
49759;BME280;70329;45.524;10.194;2024-01-10T02:50:37;101253.88;;;4.81;92.45
49759;BME280;70329;45.524;10.194;2024-01-10T02:53:04;101249.50;;;4.80;92.64
49759;BME280;70329;45.524;10.194;2024-01-10T02:55:31;101254.94;;;4.74;92.31
49759;BME280;70329;45.524;10.194;2024-01-10T02:57:59;101249.69;;;4.79;93.37
49759;BME280;70329;45.524;10.194;2024-01-10T03:00:27;101249.28;;;4.82;93.21
49759;BME280;70329;45.524;10.194;2024-01-10T03:02:53;101250.09;;;4.89;93.26
49759;BME280;70329;45.524;10.194;2024-01-10T03:05:20;101253.25;;;4.72;95.24
49759;BME280;70329;45.524;10.194;2024-01-10T03:07:46;101262.25;;;4.53;95.72
49759;BME280;70329;45.524;10.194;2024-01-10T03:10:13;101251.41;;;4.40;96.18
49759;BME280;70329;45.524;10.194;2024-01-10T03:12:41;101252.66;;;4.31;96.29
49759;BME280;70329;45.524;10.194;2024-01-10T03:15:08;101254.72;;;4.36;96.17
49759;BME280;70329;45.524;10.194;2024-01-10T03:17:36;101254.13;;;4.34;96.06
49759;BME280;70329;45.524;10.194;2024-01-10T03:20:04;101249.31;;;4.42;95.98
49759;BME280;70329;45.524;10.194;2024-01-10T03:22:31;101244.50;;;4.51;96.64
49759;BME280;70329;45.524;10.194;2024-01-10T03:24:59;101243.25;;;4.53;97.34
49759;BME280;70329;45.524;10.194;2024-01-10T03:27:27;101247.22;;;4.57;98.35
49759;BME280;70329;45.524;10.194;2024-01-10T03:29:55;101243.88;;;4.62;97.98
49759;BME280;70329;45.524;10.194;2024-01-10T03:32:21;101243.88;;;4.62;98.12
49759;BME280;70329;45.524;10.194;2024-01-10T03:34:49;101245.97;;;4.60;96.89
49759;BME280;70329;45.524;10.194;2024-01-10T03:37:16;101240.53;;;4.66;98.07
49759;BME280;70329;45.524;10.194;2024-01-10T03:39:44;101245.13;;;4.66;98.57
49759;BME280;70329;45.524;10.194;2024-01-10T03:42:12;101251.59;;;4.65;96.47
49759;BME280;70329;45.524;10.194;2024-01-10T03:44:42;101247.84;;;4.66;97.60
49759;BME280;70329;45.524;10.194;2024-01-10T03:47:08;101245.34;;;4.64;96.86
49759;BME280;70329;45.524;10.194;2024-01-10T03:49:35;101237.19;;;4.71;97.61
49759;BME280;70329;45.524;10.194;2024-01-10T03:52:05;101238.66;;;4.74;98.14
49759;BME280;70329;45.524;10.194;2024-01-10T03:54:33;101239.06;;;4.70;97.66
49759;BME280;70329;45.524;10.194;2024-01-10T03:57:00;101241.56;;;4.72;97.45
49759;BME280;70329;45.524;10.194;2024-01-10T03:59:28;101245.72;;;4.75;96.07
49759;BME280;70329;45.524;10.194;2024-01-10T04:01:54;101241.78;;;4.77;95.68
49759;BME280;70329;45.524;10.194;2024-01-10T04:04:21;101239.06;;;4.77;96.33
49759;BME280;70329;45.524;10.194;2024-01-10T04:06:48;101238.44;;;4.62;95.23
49759;BME280;70329;45.524;10.194;2024-01-10T04:09:16;101236.38;;;4.44;95.47
49759;BME280;70329;45.524;10.194;2024-01-10T04:11:42;101239.31;;;4.36;96.48
49759;BME280;70329;45.524;10.194;2024-01-10T04:14:10;101232.44;;;4.21;94.79
49759;BME280;70329;45.524;10.194;2024-01-10T04:16:38;101239.72;;;4.13;94.00
49759;BME280;70329;45.524;10.194;2024-01-10T04:19:06;101231.97;;;3.91;97.47
49759;BME280;70329;45.524;10.194;2024-01-10T04:21:33;101240.94;;;3.91;100.00
49759;BME280;70329;45.524;10.194;2024-01-10T04:24:01;101243.03;;;3.89;100.00
49759;BME280;70329;45.524;10.194;2024-01-10T04:26:28;101234.88;;;3.83;99.82
49759;BME280;70329;45.524;10.194;2024-01-10T04:28:56;101236.53;;;3.77;100.00
49759;BME280;70329;45.524;10.194;2024-01-10T04:31:24;101241.75;;;3.79;99.84
49759;BME280;70329;45.524;10.194;2024-01-10T04:33:51;101239.91;;;3.92;99.00
49759;BME280;70329;45.524;10.194;2024-01-10T04:36:19;101239.50;;;4.02;100.00
49759;BME280;70329;45.524;10.194;2024-01-10T04:38:45;101239.91;;;4.05;100.00
49759;BME280;70329;45.524;10.194;2024-01-10T04:41:12;101235.56;;;4.04;100.00
49759;BME280;70329;45.524;10.194;2024-01-10T04:43:40;101242.00;;;4.03;100.00
49759;BME280;70329;45.524;10.194;2024-01-10T04:46:08;101239.28;;;3.90;100.00
49759;BME280;70329;45.524;10.194;2024-01-10T04:48:35;101234.69;;;3.84;100.00
49759;BME280;70329;45.524;10.194;2024-01-10T04:51:02;101231.75;;;3.86;100.00
49759;BME280;70329;45.524;10.194;2024-01-10T04:53:29;101232.78;;;3.78;100.00
49759;BME280;70329;45.524;10.194;2024-01-10T04:55:55;101238.22;;;3.85;100.00
49759;BME280;70329;45.524;10.194;2024-01-10T04:58:22;101239.03;;;3.85;100.00
49759;BME280;70329;45.524;10.194;2024-01-10T05:00:50;101245.09;;;3.94;100.00
49759;BME280;70329;45.524;10.194;2024-01-10T05:03:18;101242.41;;;3.94;100.00
49759;BME280;70329;45.524;10.194;2024-01-10T05:05:44;101238.25;;;3.98;100.00
49759;BME280;70329;45.524;10.194;2024-01-10T05:08:11;101248.03;;;4.05;100.00
49759;BME280;70329;45.524;10.194;2024-01-10T05:10:39;101244.72;;;4.10;100.00
49759;BME280;70329;45.524;10.194;2024-01-10T05:13:07;101248.25;;;4.04;100.00
49759;BME280;70329;45.524;10.194;2024-01-10T05:15:35;101249.75;;;4.13;100.00
49759;BME280;70329;45.524;10.194;2024-01-10T05:18:04;101247.00;;;4.20;100.00
49759;BME280;70329;45.524;10.194;2024-01-10T05:20:30;101250.78;;;4.19;100.00
49759;BME280;70329;45.524;10.194;2024-01-10T05:22:58;101259.31;;;4.22;100.00
49759;BME280;70329;45.524;10.194;2024-01-10T05:25:24;101263.31;;;4.26;100.00
49759;BME280;70329;45.524;10.194;2024-01-10T05:27:52;101264.94;;;4.27;100.00
49759;BME280;70329;45.524;10.194;2024-01-10T05:30:19;101265.38;;;4.31;100.00
49759;BME280;70329;45.524;10.194;2024-01-10T05:32:46;101266.00;;;4.33;100.00
49759;BME280;70329;45.524;10.194;2024-01-10T05:35:14;101258.06;;;4.25;100.00
49759;BME280;70329;45.524;10.194;2024-01-10T05:37:40;101259.97;;;4.37;100.00
49759;BME280;70329;45.524;10.194;2024-01-10T05:40:09;101269.13;;;4.36;100.00
49759;BME280;70329;45.524;10.194;2024-01-10T05:42:36;101272.69;;;4.37;100.00
49759;BME280;70329;45.524;10.194;2024-01-10T05:45:04;101269.78;;;4.38;100.00
49759;BME280;70329;45.524;10.194;2024-01-10T05:47:32;101276.66;;;4.41;100.00
49759;BME280;70329;45.524;10.194;2024-01-10T05:50:00;101281.25;;;4.40;100.00
49759;BME280;70329;45.524;10.194;2024-01-10T05:52:30;101283.53;;;4.37;98.73
49759;BME280;70329;45.524;10.194;2024-01-10T05:54:57;101285.19;;;4.44;97.79
49759;BME280;70329;45.524;10.194;2024-01-10T05:57:24;101285.59;;;4.41;96.95
49759;BME280;70329;45.524;10.194;2024-01-10T05:59:51;101281.84;;;4.36;97.22
49759;BME280;70329;45.524;10.194;2024-01-10T06:02:21;101285.41;;;4.36;99.00
49759;BME280;70329;45.524;10.194;2024-01-10T06:04:47;101293.34;;;4.44;99.87
49759;BME280;70329;45.524;10.194;2024-01-10T06:07:15;101284.16;;;4.39;99.32
49759;BME280;70329;45.524;10.194;2024-01-10T06:09:43;101290.63;;;4.44;100.00
49759;BME280;70329;45.524;10.194;2024-01-10T06:12:10;101292.50;;;4.37;98.25
49759;BME280;70329;45.524;10.194;2024-01-10T06:14:37;101298.13;;;4.36;95.82
49759;BME280;70329;45.524;10.194;2024-01-10T06:17:03;101300.66;;;4.44;95.94
49759;BME280;70329;45.524;10.194;2024-01-10T06:19:32;101300.22;;;4.47;95.25
49759;BME280;70329;45.524;10.194;2024-01-10T06:21:59;101303.78;;;4.34;93.75
49759;BME280;70329;45.524;10.194;2024-01-10T06:24:26;101301.25;;;4.33;94.01
49759;BME280;70329;45.524;10.194;2024-01-10T06:26:54;101306.50;;;4.41;95.12
49759;BME280;70329;45.524;10.194;2024-01-10T06:29:21;101305.03;;;4.38;93.95
49759;BME280;70329;45.524;10.194;2024-01-10T06:31:47;101306.47;;;4.34;88.43
49759;BME280;70329;45.524;10.194;2024-01-10T06:34:14;101308.16;;;4.35;89.09
49759;BME280;70329;45.524;10.194;2024-01-10T06:36:41;101296.91;;;4.38;90.99
49759;BME280;70329;45.524;10.194;2024-01-10T06:39:09;101301.88;;;4.41;92.37
49759;BME280;70329;45.524;10.194;2024-01-10T06:41:39;101304.59;;;4.41;93.10
49759;BME280;70329;45.524;10.194;2024-01-10T06:44:09;101302.72;;;4.42;94.08
49759;BME280;70329;45.524;10.194;2024-01-10T06:46:36;101312.72;;;4.41;95.25
49759;BME280;70329;45.524;10.194;2024-01-10T06:49:03;101316.91;;;4.37;94.91
49759;BME280;70329;45.524;10.194;2024-01-10T06:51:31;101320.22;;;4.33;95.89
49759;BME280;70329;45.524;10.194;2024-01-10T06:53:57;101321.06;;;4.33;96.85
49759;BME280;70329;45.524;10.194;2024-01-10T06:56:28;101324.44;;;4.35;97.73
49759;BME280;70329;45.524;10.194;2024-01-10T06:58:55;101322.13;;;4.32;98.54
49759;BME280;70329;45.524;10.194;2024-01-10T07:01:23;101329.63;;;4.30;98.97
49759;BME280;70329;45.524;10.194;2024-01-10T07:03:50;101330.88;;;4.21;97.02
49759;BME280;70329;45.524;10.194;2024-01-10T07:06:17;101333.56;;;4.15;97.52
49759;BME280;70329;45.524;10.194;2024-01-10T07:08:44;101338.34;;;4.06;100.00
49759;BME280;70329;45.524;10.194;2024-01-10T07:11:10;101345.63;;;4.05;100.00
49759;BME280;70329;45.524;10.194;2024-01-10T07:13:37;101338.13;;;4.01;100.00
49759;BME280;70329;45.524;10.194;2024-01-10T07:16:04;101343.56;;;4.07;100.00
49759;BME280;70329;45.524;10.194;2024-01-10T07:18:32;101345.03;;;4.10;100.00
49759;BME280;70329;45.524;10.194;2024-01-10T07:20:59;101351.91;;;4.13;100.00
49759;BME280;70329;45.524;10.194;2024-01-10T07:23:26;101354.63;;;4.13;100.00
49759;BME280;70329;45.524;10.194;2024-01-10T07:25:52;101354.41;;;4.14;100.00
49759;BME280;70329;45.524;10.194;2024-01-10T07:28:19;101357.13;;;4.14;100.00
49759;BME280;70329;45.524;10.194;2024-01-10T07:30:46;101365.63;;;3.98;100.00
49759;BME280;70329;45.524;10.194;2024-01-10T07:33:13;101365.03;;;4.09;100.00
49759;BME280;70329;45.524;10.194;2024-01-10T07:35:41;101366.09;;;4.15;100.00
49759;BME280;70329;45.524;10.194;2024-01-10T07:38:08;101369.84;;;4.13;100.00
49759;BME280;70329;45.524;10.194;2024-01-10T07:40:35;101372.16;;;4.10;100.00
49759;BME280;70329;45.524;10.194;2024-01-10T07:43:02;101372.34;;;4.15;100.00
49759;BME280;70329;45.524;10.194;2024-01-10T07:45:28;101377.78;;;4.15;100.00
49759;BME280;70329;45.524;10.194;2024-01-10T07:47:55;101386.34;;;4.19;100.00
49759;BME280;70329;45.524;10.194;2024-01-10T07:50:22;101380.72;;;4.20;100.00
49759;BME280;70329;45.524;10.194;2024-01-10T07:52:53;101388.44;;;4.23;100.00
49759;BME280;70329;45.524;10.194;2024-01-10T07:55:20;101382.16;;;4.23;100.00
49759;BME280;70329;45.524;10.194;2024-01-10T07:57:47;101385.09;;;4.21;100.00
49759;BME280;70329;45.524;10.194;2024-01-10T08:00:15;101394.91;;;4.29;100.00
49759;BME280;70329;45.524;10.194;2024-01-10T08:02:41;101390.97;;;4.31;100.00
49759;BME280;70329;45.524;10.194;2024-01-10T08:05:08;101393.88;;;4.36;100.00
49759;BME280;70329;45.524;10.194;2024-01-10T08:07:35;101392.22;;;4.35;100.00
49759;BME280;70329;45.524;10.194;2024-01-10T08:10:04;101393.47;;;4.39;100.00
49759;BME280;70329;45.524;10.194;2024-01-10T08:12:31;101397.25;;;4.45;100.00
49759;BME280;70329;45.524;10.194;2024-01-10T08:14:57;101391.84;;;4.51;100.00
49759;BME280;70329;45.524;10.194;2024-01-10T08:17:24;101395.19;;;4.60;100.00
49759;BME280;70329;45.524;10.194;2024-01-10T08:19:50;101402.94;;;4.63;100.00
49759;BME280;70329;45.524;10.194;2024-01-10T08:22:18;101403.56;;;4.72;100.00
49759;BME280;70329;45.524;10.194;2024-01-10T08:24:45;101405.41;;;4.78;100.00
49759;BME280;70329;45.524;10.194;2024-01-10T08:27:13;101409.16;;;4.50;98.28
49759;BME280;70329;45.524;10.194;2024-01-10T08:29:40;101402.88;;;4.43;99.09
49759;BME280;70329;45.524;10.194;2024-01-10T08:32:06;101409.78;;;4.46;99.40
49759;BME280;70329;45.524;10.194;2024-01-10T08:34:33;101409.78;;;4.52;98.06
49759;BME280;70329;45.524;10.194;2024-01-10T08:37:00;101410.19;;;4.43;96.19
49759;BME280;70329;45.524;10.194;2024-01-10T08:39:26;101411.63;;;4.39;96.35
49759;BME280;70329;45.524;10.194;2024-01-10T08:41:55;101413.31;;;4.40;95.47
49759;BME280;70329;45.524;10.194;2024-01-10T08:44:24;101417.09;;;4.58;95.05
49759;BME280;70329;45.524;10.194;2024-01-10T08:46:50;101417.13;;;4.72;95.03
49759;BME280;70329;45.524;10.194;2024-01-10T08:49:18;101422.34;;;4.80;93.93
49759;BME280;70329;45.524;10.194;2024-01-10T08:51:44;101425.72;;;4.88;92.97
49759;BME280;70329;45.524;10.194;2024-01-10T08:54:11;101430.72;;;4.91;89.98
49759;BME280;70329;45.524;10.194;2024-01-10T08:56:42;101430.50;;;4.99;90.60
49759;BME280;70329;45.524;10.194;2024-01-10T08:59:10;101435.31;;;5.04;90.95
49759;BME280;70329;45.524;10.194;2024-01-10T09:01:38;101433.22;;;4.99;91.07
49759;BME280;70329;45.524;10.194;2024-01-10T09:04:05;101437.81;;;4.99;87.89
49759;BME280;70329;45.524;10.194;2024-01-10T09:06:32;101442.19;;;5.00;87.60
49759;BME280;70329;45.524;10.194;2024-01-10T09:08:58;101445.94;;;5.05;87.91
49759;BME280;70329;45.524;10.194;2024-01-10T09:11:25;101447.22;;;5.09;90.19
49759;BME280;70329;45.524;10.194;2024-01-10T09:13:52;101450.34;;;4.80;89.66
49759;BME280;70329;45.524;10.194;2024-01-10T09:16:18;101447.75;;;4.52;93.22
49759;BME280;70329;45.524;10.194;2024-01-10T09:18:46;101453.38;;;4.38;95.55
49759;BME280;70329;45.524;10.194;2024-01-10T09:21:13;101449.38;;;4.34;95.40
49759;BME280;70329;45.524;10.194;2024-01-10T09:23:40;101454.75;;;4.27;98.32
49759;BME280;70329;45.524;10.194;2024-01-10T09:26:07;101454.63;;;4.42;97.77
49759;BME280;70329;45.524;10.194;2024-01-10T09:28:34;101454.66;;;4.61;95.17
49759;BME280;70329;45.524;10.194;2024-01-10T09:31:01;101464.06;;;4.72;94.34
49759;BME280;70329;45.524;10.194;2024-01-10T09:33:28;101459.94;;;4.83;92.16
49759;BME280;70329;45.524;10.194;2024-01-10T09:35:56;101465.09;;;4.64;92.84
49759;BME280;70329;45.524;10.194;2024-01-10T09:38:23;101465.28;;;4.50;94.33
49759;BME280;70329;45.524;10.194;2024-01-10T09:40:49;101465.06;;;4.45;95.56
49759;BME280;70329;45.524;10.194;2024-01-10T09:43:16;101468.63;;;4.52;93.64
49759;BME280;70329;45.524;10.194;2024-01-10T09:45:43;101471.81;;;4.68;93.25
49759;BME280;70329;45.524;10.194;2024-01-10T09:48:13;101463.06;;;4.86;93.14
49759;BME280;70329;45.524;10.194;2024-01-10T09:50:41;101463.91;;;5.00;93.07
49759;BME280;70329;45.524;10.194;2024-01-10T09:53:11;101457.59;;;4.60;91.12
49759;BME280;70329;45.524;10.194;2024-01-10T09:55:42;101464.69;;;4.67;93.55
49759;BME280;70329;45.524;10.194;2024-01-10T09:58:11;101464.13;;;4.85;92.01
49759;BME280;70329;45.524;10.194;2024-01-10T10:00:39;101464.75;;;5.00;94.21
49759;BME280;70329;45.524;10.194;2024-01-10T10:03:07;101460.34;;;5.06;94.40
49759;BME280;70329;45.524;10.194;2024-01-10T10:05:36;101468.50;;;5.06;93.26
49759;BME280;70329;45.524;10.194;2024-01-10T10:08:06;101460.56;;;5.17;91.03
49759;BME280;70329;45.524;10.194;2024-01-10T10:10:36;101469.75;;;4.90;89.97
49759;BME280;70329;45.524;10.194;2024-01-10T10:13:08;101464.75;;;4.87;92.70
49759;BME280;70329;45.524;10.194;2024-01-10T10:15:36;101466.44;;;5.01;90.83
49759;BME280;70329;45.524;10.194;2024-01-10T10:18:03;101461.41;;;5.18;89.78
49759;BME280;70329;45.524;10.194;2024-01-10T10:20:31;101452.00;;;5.34;89.76
49759;BME280;70329;45.524;10.194;2024-01-10T10:22:59;101456.59;;;5.40;90.63
49759;BME280;70329;45.524;10.194;2024-01-10T10:25:29;101453.44;;;5.56;90.49
49759;BME280;70329;45.524;10.194;2024-01-10T10:28:00;101451.56;;;5.63;87.37
49759;BME280;70329;45.524;10.194;2024-01-10T10:30:27;101455.72;;;5.72;87.83
49759;BME280;70329;45.524;10.194;2024-01-10T10:32:55;101451.09;;;5.79;87.13
49759;BME280;70329;45.524;10.194;2024-01-10T10:35:23;101449.00;;;5.88;86.33
49759;BME280;70329;45.524;10.194;2024-01-10T10:37:51;101452.75;;;5.93;81.50
49759;BME280;70329;45.524;10.194;2024-01-10T10:40:20;101443.13;;;5.97;82.52
49759;BME280;70329;45.524;10.194;2024-01-10T10:42:47;101444.78;;;5.98;81.12
49759;BME280;70329;45.524;10.194;2024-01-10T10:45:17;101445.63;;;5.92;82.19
49759;BME280;70329;45.524;10.194;2024-01-10T10:47:46;101447.94;;;6.02;81.79
49759;BME280;70329;45.524;10.194;2024-01-10T10:50:20;101439.75;;;6.08;81.63
49759;BME280;70329;45.524;10.194;2024-01-10T10:52:49;101441.41;;;6.09;80.37
49759;BME280;70329;45.524;10.194;2024-01-10T10:55:18;101447.47;;;6.11;80.49
49759;BME280;70329;45.524;10.194;2024-01-10T10:57:47;101435.72;;;6.17;78.67
49759;BME280;70329;45.524;10.194;2024-01-10T11:00:18;101438.66;;;6.16;78.46
49759;BME280;70329;45.524;10.194;2024-01-10T11:02:45;101439.06;;;6.19;80.52
49759;BME280;70329;45.524;10.194;2024-01-10T11:05:12;101438.84;;;6.21;81.42
49759;BME280;70329;45.524;10.194;2024-01-10T11:07:40;101432.19;;;6.10;83.07
49759;BME280;70329;45.524;10.194;2024-01-10T11:10:11;101436.00;;;6.03;81.13
49759;BME280;70329;45.524;10.194;2024-01-10T11:13:00;101423.00;;;6.11;82.15
49759;BME280;70329;45.524;10.194;2024-01-10T11:15:50;101422.97;;;6.18;81.63
49759;BME280;70329;45.524;10.194;2024-01-10T11:18:48;101418.34;;;6.25;81.67
49759;BME280;70329;45.524;10.194;2024-01-10T11:21:22;101417.69;;;6.23;79.43
49759;BME280;70329;45.524;10.194;2024-01-10T11:23:56;101414.78;;;6.24;78.70
49759;BME280;70329;45.524;10.194;2024-01-10T11:26:24;101414.53;;;6.26;77.69
49759;BME280;70329;45.524;10.194;2024-01-10T11:28:53;101418.75;;;6.22;78.35
49759;BME280;70329;45.524;10.194;2024-01-10T11:31:29;101410.97;;;6.25;78.99
49759;BME280;70329;45.524;10.194;2024-01-10T11:33:57;101412.22;;;6.29;80.94
49759;BME280;70329;45.524;10.194;2024-01-10T11:36:24;101408.25;;;6.32;80.06
49759;BME280;70329;45.524;10.194;2024-01-10T11:38:54;101402.38;;;6.28;78.02
49759;BME280;70329;45.524;10.194;2024-01-10T11:41:25;101401.59;;;6.21;77.08
49759;BME280;70329;45.524;10.194;2024-01-10T11:44:29;101403.47;;;6.21;75.91
49759;BME280;70329;45.524;10.194;2024-01-10T11:46:59;101402.47;;;6.15;77.31
49759;BME280;70329;45.524;10.194;2024-01-10T11:49:27;101393.88;;;6.18;77.78
49759;BME280;70329;45.524;10.194;2024-01-10T11:51:56;101398.44;;;6.24;78.81
49759;BME280;70329;45.524;10.194;2024-01-10T11:54:36;101391.34;;;6.23;79.63
49759;BME280;70329;45.524;10.194;2024-01-10T11:57:07;101392.28;;;6.04;81.77
49759;BME280;70329;45.524;10.194;2024-01-10T11:59:34;101387.59;;;6.18;81.25
49759;BME280;70329;45.524;10.194;2024-01-10T12:02:03;101382.13;;;6.24;83.05
49759;BME280;70329;45.524;10.194;2024-01-10T12:04:31;101389.16;;;6.38;82.80
49759;BME280;70329;45.524;10.194;2024-01-10T12:07:00;101384.56;;;6.39;81.53
49759;BME280;70329;45.524;10.194;2024-01-10T12:09:29;101380.19;;;6.31;79.98
49759;BME280;70329;45.524;10.194;2024-01-10T12:11:57;101371.03;;;6.26;80.82
49759;BME280;70329;45.524;10.194;2024-01-10T12:14:24;101372.53;;;6.22;80.54
49759;BME280;70329;45.524;10.194;2024-01-10T12:16:52;101368.78;;;6.16;79.67
49759;BME280;70329;45.524;10.194;2024-01-10T12:19:21;101370.66;;;6.16;79.25
49759;BME280;70329;45.524;10.194;2024-01-10T12:21:49;101368.97;;;6.21;77.82
49759;BME280;70329;45.524;10.194;2024-01-10T12:24:17;101367.38;;;6.01;76.87
49759;BME280;70329;45.524;10.194;2024-01-10T12:26:45;101367.25;;;5.76;75.84
49759;BME280;70329;45.524;10.194;2024-01-10T12:29:17;101361.59;;;5.91;79.64
49759;BME280;70329;45.524;10.194;2024-01-10T12:31:47;101355.44;;;6.08;79.67
49759;BME280;70329;45.524;10.194;2024-01-10T12:34:15;101358.31;;;5.69;76.82
49759;BME280;70329;45.524;10.194;2024-01-10T12:36:55;101357.84;;;5.78;80.58
49759;BME280;70329;45.524;10.194;2024-01-10T12:39:23;101349.66;;;5.92;79.44
49759;BME280;70329;45.524;10.194;2024-01-10T12:41:52;101355.34;;;5.77;75.78
49759;BME280;70329;45.524;10.194;2024-01-10T12:44:21;101356.16;;;5.91;76.60
49759;BME280;70329;45.524;10.194;2024-01-10T12:46:51;101346.66;;;6.06;74.51
49759;BME280;70329;45.524;10.194;2024-01-10T12:49:18;101342.31;;;5.99;75.71
49759;BME280;70329;45.524;10.194;2024-01-10T12:51:47;101344.41;;;5.97;74.70